Time;durP1;ratioP1;P1;durP2;ratioP2;P2;SDS_P1;SDS_P2;PMS_P1;PMS_P2;Temp;Humidity;BMP_temperature;BMP_pressure;BME280_temperature;BME280_humidity;BME280_pressure;Samples;Min_cycle;Max_cycle;Signal;HPM_P1;HPM_P2
2022/11/15 00:00:07;;;;;;;4.20;3.78;;;;;;;6.72;100.00;100755.69;5026463;28;20064;-72
2022/11/15 00:02:32;;;;;;;4.57;3.78;;;;;;;6.73;100.00;100751.91;5039337;28;20024;-71
2022/11/15 00:04:57;;;;;;;4.40;3.58;;;;;;;6.79;100.00;100755.69;5037248;28;20622;-70
2022/11/15 00:07:23;;;;;;;4.35;3.95;;;;;;;6.80;100.00;100747.31;5045845;28;20039;-68
2022/11/15 00:09:48;;;;;;;4.50;3.65;;;;;;;6.84;100.00;100756.72;5044077;28;20052;-70
2022/11/15 00:12:13;;;;;;;4.25;3.65;;;;;;;6.86;100.00;100754.66;5045244;28;20068;-72
2022/11/15 00:14:38;;;;;;;4.18;3.78;;;;;;;6.93;100.00;100757.38;5044285;28;20476;-71
2022/11/15 00:17:04;;;;;;;3.78;3.47;;;;;;;6.95;100.00;100749.84;5044949;28;20037;-69
2022/11/15 00:19:29;;;;;;;4.20;3.80;;;;;;;6.98;100.00;100750.25;5042771;28;21100;-71
2022/11/15 00:21:54;;;;;;;4.30;3.75;;;;;;;7.01;100.00;100751.72;5043670;28;20079;-71
2022/11/15 00:24:19;;;;;;;3.92;3.63;;;;;;;7.06;100.00;100745.63;5041585;28;20135;-71
2022/11/15 00:26:45;;;;;;;4.20;3.80;;;;;;;7.08;100.00;100749.81;5033183;28;20098;-68
2022/11/15 00:29:10;;;;;;;4.13;3.60;;;;;;;7.12;100.00;100753.81;5030472;28;20033;-68
2022/11/15 00:31:35;;;;;;;3.47;3.17;;;;;;;7.16;100.00;100744.16;5031334;28;20041;-71
2022/11/15 00:34:00;;;;;;;3.60;3.30;;;;;;;7.19;100.00;100742.88;5038726;28;20051;-69
2022/11/15 00:36:26;;;;;;;3.90;3.60;;;;;;;7.24;100.00;100738.47;5044581;28;20028;-70
2022/11/15 00:38:51;;;;;;;3.65;3.30;;;;;;;7.27;100.00;100742.69;5033390;28;20031;-71
2022/11/15 00:41:16;;;;;;;4.07;3.40;;;;;;;7.28;100.00;100747.91;5034140;28;20040;-66
2022/11/15 00:43:43;;;;;;;3.65;3.30;;;;;;;7.32;100.00;100742.06;5044271;28;20472;-71
2022/11/15 00:46:09;;;;;;;3.53;3.20;;;;;;;7.35;100.00;100739.75;5047503;28;20021;-68
2022/11/15 00:48:35;;;;;;;3.40;3.15;;;;;;;7.38;100.00;100735.72;5037891;28;20021;-67
2022/11/15 00:51:00;;;;;;;3.38;3.17;;;;;;;7.41;100.00;100727.97;5049463;28;20105;-68
2022/11/15 00:53:25;;;;;;;3.70;3.40;;;;;;;7.44;100.00;100732.13;5047575;28;20846;-70
2022/11/15 00:55:51;;;;;;;3.20;2.80;;;;;;;7.47;100.00;100727.09;5032449;28;20040;-69
2022/11/15 00:58:16;;;;;;;3.28;2.97;;;;;;;7.53;100.00;100722.66;5043012;28;20424;-72
2022/11/15 01:00:41;;;;;;;3.65;3.17;;;;;;;7.56;100.00;100721.41;5048251;28;20033;-71
2022/11/15 01:03:06;;;;;;;3.30;3.00;;;;;;;7.63;100.00;100720.31;5048328;28;20032;-72
2022/11/15 01:05:32;;;;;;;3.17;2.97;;;;;;;7.65;100.00;100726.41;5048590;28;20044;-71
2022/11/15 01:07:57;;;;;;;3.35;3.05;;;;;;;7.68;100.00;100712.31;5049035;28;20025;-69
2022/11/15 01:10:23;;;;;;;3.33;3.03;;;;;;;7.71;100.00;100719.28;5046748;28;20048;-71
2022/11/15 01:12:49;;;;;;;3.15;2.90;;;;;;;7.74;100.00;100716.94;5048167;28;20043;-68
2022/11/15 01:15:14;;;;;;;3.08;2.88;;;;;;;7.80;100.00;100716.06;5039348;28;20036;-72
2022/11/15 01:17:39;;;;;;;2.80;2.60;;;;;;;7.84;100.00;100719.22;5044796;28;20037;-72
2022/11/15 01:20:06;;;;;;;3.03;2.80;;;;;;;7.90;100.00;100720.22;5047926;28;20067;-70
2022/11/15 01:22:31;;;;;;;3.15;2.78;;;;;;;7.93;100.00;100700.66;5047202;28;20123;-72
2022/11/15 01:24:56;;;;;;;2.88;2.67;;;;;;;7.98;100.00;100711.81;5038575;28;20160;-72
2022/11/15 01:27:22;;;;;;;3.05;2.85;;;;;;;8.02;100.00;100702.94;5044217;28;20037;-72
2022/11/15 01:29:47;;;;;;;2.95;2.65;;;;;;;8.07;100.00;100705.03;5042339;28;20033;-71
2022/11/15 01:32:12;;;;;;;2.90;2.70;;;;;;;8.12;100.00;100702.47;5048136;28;20495;-70
2022/11/15 01:34:38;;;;;;;2.72;2.53;;;;;;;8.17;100.00;100693.63;5032667;28;20022;-72
2022/11/15 01:37:03;;;;;;;2.90;2.70;;;;;;;8.25;100.00;100696.09;5045767;28;20029;-72
2022/11/15 01:39:28;;;;;;;2.65;2.45;;;;;;;8.30;100.00;100691.63;5043730;28;20026;-71
2022/11/15 01:41:54;;;;;;;2.90;2.70;;;;;;;8.35;100.00;100692.88;5043733;28;20017;-72
2022/11/15 01:44:31;;;;;;;2.80;2.60;;;;;;;8.37;100.00;100693.53;5040647;28;20029;-73
2022/11/15 01:47:00;;;;;;;2.95;2.50;;;;;;;8.41;100.00;100694.75;5031732;28;20325;-72
2022/11/15 01:49:28;;;;;;;2.50;2.30;;;;;;;8.41;100.00;100692.84;5045451;28;20028;-71
2022/11/15 01:51:54;;;;;;;2.92;2.72;;;;;;;8.47;100.00;100688.41;5046963;28;20041;-71
2022/11/15 01:54:21;;;;;;;2.72;2.53;;;;;;;8.50;100.00;100687.97;5034854;28;20033;-68
2022/11/15 01:56:53;;;;;;;2.67;2.47;;;;;;;8.55;100.00;100699.09;5035402;28;20028;-68
2022/11/15 01:59:19;;;;;;;2.40;2.20;;;;;;;8.57;100.00;100700.56;5047077;28;20111;-72
2022/11/15 02:01:45;;;;;;;2.50;2.30;;;;;;;8.61;100.00;100689.16;5048479;28;20028;-67
2022/11/15 02:04:15;;;;;;;2.50;2.30;;;;;;;8.66;100.00;100692.88;5045909;28;20103;-68
2022/11/15 02:06:42;;;;;;;2.40;2.20;;;;;;;8.73;100.00;100690.97;5047213;28;20151;-72
2022/11/15 02:09:07;;;;;;;2.63;2.42;;;;;;;8.75;100.00;100701.69;5047046;28;20037;-72
2022/11/15 02:11:33;;;;;;;2.20;2.00;;;;;;;8.76;100.00;100690.50;5036021;28;20044;-73
2022/11/15 02:14:00;;;;;;;2.42;2.22;;;;;;;8.79;100.00;100687.31;5046191;28;20427;-67
2022/11/15 02:16:56;;;;;;;2.20;2.10;;;;;;;8.80;100.00;100680.78;5047131;28;20094;-67
2022/11/15 02:19:36;;;;;;;2.22;2.03;;;;;;;8.81;100.00;100674.25;5044197;28;20663;-71
2022/11/15 02:22:04;;;;;;;2.17;2.08;;;;;;;8.85;100.00;100658.22;5032049;28;20048;-72
2022/11/15 02:24:48;;;;;;;2.17;1.98;;;;;;;8.88;100.00;100659.66;5035465;28;20585;-72
2022/11/15 02:27:31;;;;;;;2.25;2.13;;;;;;;8.91;100.00;100662.78;5044472;28;20028;-71
2022/11/15 02:30:13;;;;;;;2.10;2.00;;;;;;;8.93;100.00;100665.31;5045739;28;20423;-70
2022/11/15 02:32:46;;;;;;;2.03;1.88;;;;;;;8.97;100.00;100661.91;5043227;28;20038;-71
2022/11/15 02:35:37;;;;;;;2.63;2.10;;;;;;;9.00;100.00;100663.34;5045933;28;20052;-70
2022/11/15 02:38:17;;;;;;;2.17;2.00;;;;;;;9.01;100.00;100654.06;5042980;28;20600;-69
2022/11/15 02:41:03;;;;;;;2.00;1.90;;;;;;;9.10;100.00;100661.75;5046987;28;20029;-71
2022/11/15 02:43:58;;;;;;;2.10;1.90;;;;;;;9.18;100.00;100657.91;5047243;28;20029;-72
2022/11/15 02:49:22;;;;;;;2.10;2.00;;;;;;;9.35;100.00;100647.19;5026897;28;20143;-67
2022/11/15 02:51:50;;;;;;;1.88;1.70;;;;;;;9.36;100.00;100651.59;5033174;28;20029;-72
2022/11/15 02:54:24;;;;;;;2.00;1.90;;;;;;;9.41;100.00;100643.53;5042862;28;20428;-72
2022/11/15 02:56:54;;;;;;;2.00;1.90;;;;;;;9.49;100.00;100642.41;5047850;28;20040;-72
2022/11/15 02:59:29;;;;;;;1.80;1.70;;;;;;;9.51;100.00;100626.53;5047032;28;20575;-68
2022/11/15 03:02:20;;;;;;;2.00;1.80;;;;;;;9.55;100.00;100633.25;5045935;28;20388;-70
2022/11/15 03:05:08;;;;;;;2.17;1.85;;;;;;;9.57;100.00;100631.09;5032513;28;20648;-72
2022/11/15 03:07:43;;;;;;;1.77;1.67;;;;;;;9.64;100.00;100633.78;5026935;28;20055;-70
2022/11/15 03:10:35;;;;;;;1.50;1.40;;;;;;;9.65;100.00;100630.81;5027161;28;20049;-71
2022/11/15 03:13:17;;;;;;;1.80;1.70;;;;;;;9.73;100.00;100629.63;5030202;28;20032;-71
2022/11/15 03:16:05;;;;;;;1.92;1.60;;;;;;;9.76;100.00;100629.19;5036190;28;20037;-71
2022/11/15 03:18:43;;;;;;;1.70;1.60;;;;;;;9.76;100.00;100630.03;5044732;28;20166;-70
2022/11/15 03:21:11;;;;;;;1.58;1.48;;;;;;;9.76;100.00;100635.50;5043628;28;20052;-71
2022/11/15 03:23:39;;;;;;;1.63;1.52;;;;;;;9.79;100.00;100639.72;5045212;28;20476;-68
2022/11/15 03:26:07;;;;;;;1.20;1.10;;;;;;;9.79;100.00;100640.53;5045609;28;20044;-68
2022/11/15 03:28:38;;;;;;;1.55;1.45;;;;;;;9.82;100.00;100631.84;5045848;28;20291;-70
2022/11/15 03:31:46;;;;;;;1.58;1.30;;;;;;;9.84;100.00;100629.72;5042769;28;20491;-72
2022/11/15 03:33:54;;;;;;;1.40;1.33;;;;;;;9.90;100.00;100636.19;5030870;28;20179;-71
2022/11/15 03:36:23;;;;;;;1.10;1.10;;;;;;;9.92;100.00;100642.25;5043423;28;20460;-71
2022/11/15 03:38:48;;;;;;;1.25;1.20;;;;;;;9.94;100.00;100636.56;5045564;28;20049;-69
2022/11/15 03:41:39;;;;;;;1.33;1.23;;;;;;;9.94;100.00;100640.16;5035125;28;20416;-70
2022/11/15 03:44:16;;;;;;;1.30;1.20;;;;;;;9.98;100.00;100637.75;5017502;28;20475;-72
2022/11/15 03:47:09;;;;;;;1.20;1.10;;;;;;;9.96;100.00;100635.25;5046015;28;20025;-72
2022/11/15 03:49:38;;;;;;;1.30;1.20;;;;;;;9.96;100.00;100629.75;5045654;28;20061;-68
2022/11/15 03:52:05;;;;;;;0.88;0.88;;;;;;;9.97;100.00;100633.34;5037693;28;20037;-72
2022/11/15 03:54:30;;;;;;;1.17;1.10;;;;;;;10.00;100.00;100627.41;5044546;28;20060;-69
2022/11/15 03:56:56;;;;;;;1.00;1.00;;;;;;;10.01;100.00;100634.56;5045570;28;20511;-72
2022/11/15 03:59:21;;;;;;;1.08;1.00;;;;;;;9.99;100.00;100633.97;5045227;28;20057;-68
2022/11/15 04:01:47;;;;;;;0.95;0.95;;;;;;;10.00;100.00;100628.22;5031696;28;20072;-71
2022/11/15 04:04:12;;;;;;;0.90;0.90;;;;;;;10.04;100.00;100631.34;5034867;28;20068;-72
2022/11/15 04:06:37;;;;;;;0.80;0.80;;;;;;;10.01;100.00;100623.59;5030884;28;20412;-71
2022/11/15 04:09:02;;;;;;;1.00;0.90;;;;;;;9.99;100.00;100643.03;4990149;28;1054555;-71
2022/11/15 04:11:28;;;;;;;0.82;0.80;;;;;;;10.02;100.00;100636.22;5038299;28;20059;-71
2022/11/15 04:13:53;;;;;;;0.90;0.90;;;;;;;10.03;100.00;100632.41;5042097;28;20083;-72
2022/11/15 04:16:18;;;;;;;0.93;0.93;;;;;;;10.04;100.00;100628.63;5045950;28;20367;-71
2022/11/15 04:18:44;;;;;;;0.90;0.90;;;;;;;10.06;100.00;100626.47;5046072;28;20078;-72
2022/11/15 04:26:21;;;;;;;0.90;0.90;;;;;;;10.09;100.00;100620.53;5031414;28;20034;-72
2022/11/15 04:31:30;;;;;;;0.80;0.80;;;;;;;10.13;100.00;100632.69;5035594;28;19944;-71
2022/11/15 04:33:56;;;;;;;0.80;0.80;;;;;;;10.12;100.00;100623.63;5030212;28;20018;-72
2022/11/15 04:39:06;;;;;;;0.80;0.80;;;;;;;10.11;100.00;100623.84;5030541;28;20044;-70
2022/11/15 04:41:31;;;;;;;0.80;0.80;;;;;;;10.09;100.00;100621.34;5042743;28;20029;-71
2022/11/15 04:43:56;;;;;;;0.70;0.70;;;;;;;10.08;100.00;100630.63;5048955;28;20036;-73
2022/11/15 04:46:25;;;;;;;0.70;0.70;;;;;;;10.09;100.00;100634.25;5050443;28;20383;-73
2022/11/15 04:48:51;;;;;;;0.70;0.70;;;;;;;10.10;100.00;100634.00;5049385;28;20033;-70
2022/11/15 04:51:17;;;;;;;0.75;0.75;;;;;;;10.09;100.00;100629.59;5037501;28;20563;-72
2022/11/15 04:53:42;;;;;;;0.60;0.60;;;;;;;10.08;100.00;100629.81;5034101;28;20024;-69
2022/11/15 04:56:07;;;;;;;0.70;0.70;;;;;;;10.10;100.00;100624.94;5050383;28;20017;-73
2022/11/15 04:58:33;;;;;;;0.60;0.60;;;;;;;10.10;100.00;100631.25;5049628;28;20065;-72
2022/11/15 05:01:06;;;;;;;0.70;0.70;;;;;;;10.13;100.00;100625.28;5046179;28;20021;-71
2022/11/15 05:06:15;;;;;;;0.70;0.70;;;;;;;10.12;100.00;100628.28;5049392;28;20090;-72
2022/11/15 05:08:40;;;;;;;0.70;0.70;;;;;;;10.13;100.00;100632.69;5048672;28;20029;-72
2022/11/15 05:11:06;;;;;;;0.60;0.60;;;;;;;10.12;100.00;100626.34;5039187;28;20065;-70
2022/11/15 05:13:31;;;;;;;0.45;0.45;;;;;;;10.13;100.00;100624.44;5045659;28;20460;-72
2022/11/15 05:15:56;;;;;;;0.60;0.60;;;;;;;10.12;100.00;100620.88;5048581;28;20032;-73
2022/11/15 05:18:21;;;;;;;0.60;0.60;;;;;;;10.12;100.00;100620.88;5035022;28;20042;-71
2022/11/15 05:20:47;;;;;;;0.60;0.60;;;;;;;10.12;100.00;100622.78;5040321;28;20051;-69
2022/11/15 05:23:12;;;;;;;0.60;0.60;;;;;;;10.13;100.00;100622.53;5042936;28;20025;-71
2022/11/15 05:25:37;;;;;;;0.60;0.60;;;;;;;10.14;100.00;100621.50;5048956;28;20471;-72
2022/11/15 05:28:03;;;;;;;0.60;0.60;;;;;;;10.14;100.00;100623.41;5049188;28;20032;-69
2022/11/15 05:30:28;;;;;;;0.60;0.60;;;;;;;10.14;100.00;100623.41;5045162;28;20412;-72
2022/11/15 05:32:53;;;;;;;0.50;0.50;;;;;;;10.16;100.00;100612.19;5047024;28;20585;-71
2022/11/15 05:35:30;;;;;;;0.70;0.70;;;;;;;10.15;100.00;100614.09;5048510;28;20037;-68
2022/11/15 05:37:56;;;;;;;0.65;0.65;;;;;;;10.16;100.00;100610.28;5047717;28;20029;-71
2022/11/15 05:40:21;;;;;;;0.55;0.55;;;;;;;10.16;100.00;100624.00;5048629;28;20025;-71
2022/11/15 05:42:47;;;;;;;0.50;0.50;;;;;;;10.18;100.00;100613.59;5048171;28;20075;-73
2022/11/15 05:45:13;;;;;;;0.60;0.60;;;;;;;10.17;100.00;100611.94;5036652;28;20363;-73
2022/11/15 05:47:40;;;;;;;0.70;0.70;;;;;;;10.18;100.00;100621.00;5031896;28;20032;-72
2022/11/15 05:50:06;;;;;;;0.60;0.60;;;;;;;10.18;100.00;100613.59;5029730;28;20083;-72
2022/11/15 05:52:36;;;;;;;0.80;0.80;;;;;;;10.17;100.00;100611.09;5027501;28;20025;-71
2022/11/15 05:55:05;;;;;;;0.77;0.77;;;;;;;10.15;100.00;100619.59;5030718;28;21643;-69
2022/11/15 05:57:30;;;;;;;0.60;0.60;;;;;;;10.15;100.00;100616.84;5047355;28;20495;-70
2022/11/15 05:59:55;;;;;;;0.70;0.70;;;;;;;10.13;100.00;100617.06;5049090;28;20091;-72
2022/11/15 06:02:21;;;;;;;0.80;0.80;;;;;;;10.11;100.00;100619.19;5048354;28;20387;-72
2022/11/15 06:04:46;;;;;;;0.70;0.70;;;;;;;10.11;100.00;100619.19;5046874;28;20037;-73
2022/11/15 06:07:11;;;;;;;0.82;0.80;;;;;;;10.13;100.00;100621.72;5031900;28;20395;-72
2022/11/15 06:09:37;;;;;;;0.80;0.80;;;;;;;10.13;100.00;100622.53;5038939;28;20104;-70
2022/11/15 06:12:02;;;;;;;0.80;0.80;;;;;;;10.13;100.00;100629.94;5030873;28;20452;-73
2022/11/15 06:14:27;;;;;;;1.17;1.00;;;;;;;10.15;100.00;100636.06;5044244;28;20044;-72
2022/11/15 06:16:53;;;;;;;1.17;1.08;;;;;;;10.15;100.00;100630.56;5045974;28;20448;-70
2022/11/15 06:19:18;;;;;;;1.13;1.00;;;;;;;10.16;100.00;100626.75;5046773;28;20487;-71
2022/11/15 06:21:43;;;;;;;1.00;1.00;;;;;;;10.15;100.00;100633.31;5045020;28;20035;-72
2022/11/15 06:24:09;;;;;;;0.93;0.93;;;;;;;10.19;100.00;100631.78;5047115;28;20529;-70
2022/11/15 06:26:34;;;;;;;1.10;1.10;;;;;;;10.19;100.00;100637.25;5048746;28;20120;-73
2022/11/15 06:28:59;;;;;;;1.38;1.27;;;;;;;10.20;100.00;100638.94;5046750;28;20029;-68
2022/11/15 06:31:24;;;;;;;1.30;1.20;;;;;;;10.22;100.00;100645.00;5044505;28;20025;-72
2022/11/15 06:33:50;;;;;;;1.27;1.25;;;;;;;10.22;100.00;100645.00;5047774;28;20025;-71
2022/11/15 06:36:16;;;;;;;1.40;1.30;;;;;;;10.24;100.00;100645.66;5045684;28;20052;-70
2022/11/15 06:38:42;;;;;;;1.92;1.40;;;;;;;10.23;100.00;100651.34;5043783;28;20048;-72
2022/11/15 06:41:10;;;;;;;1.50;1.40;;;;;;;10.24;100.00;100642.06;5040058;28;20040;-72
2022/11/15 06:43:36;;;;;;;1.60;1.50;;;;;;;10.25;100.00;100646.50;5046667;28;20079;-72
2022/11/15 06:46:03;;;;;;;2.20;1.83;;;;;;;10.27;100.00;100647.09;5040065;28;20697;-72
2022/11/15 06:48:29;;;;;;;1.65;1.55;;;;;;;10.27;100.00;100653.41;5029029;28;20078;-73
2022/11/15 06:50:56;;;;;;;1.83;1.73;;;;;;;10.28;100.00;100657.81;5038247;28;20048;-68
2022/11/15 06:53:22;;;;;;;2.45;1.80;;;;;;;10.28;100.00;100654.25;5047550;28;20029;-73
2022/11/15 06:55:47;;;;;;;2.17;1.98;;;;;;;10.27;100.00;100656.16;5048455;28;20071;-71
2022/11/15 06:58:13;;;;;;;2.30;2.10;;;;;;;10.27;100.00;100658.06;5047562;28;20044;-73
2022/11/15 07:00:39;;;;;;;2.42;2.22;;;;;;;10.26;100.00;100664.63;5036186;28;20037;-72
2022/11/15 07:03:04;;;;;;;2.25;2.05;;;;;;;10.27;100.00;100671.78;5027255;28;20033;-72
2022/11/15 07:05:30;;;;;;;3.15;2.33;;;;;;;10.24;100.00;100672.25;5046014;28;20650;-71
2022/11/15 07:07:56;;;;;;;3.10;2.40;;;;;;;10.23;100.00;100667.81;5047420;28;20074;-70
2022/11/15 07:10:24;;;;;;;2.72;2.50;;;;;;;10.22;100.00;100664.22;5045358;28;20178;-70
2022/11/15 07:12:50;;;;;;;3.00;2.63;;;;;;;10.21;100.00;100664.47;5046991;28;20020;-71
2022/11/15 07:15:17;;;;;;;3.08;2.78;;;;;;;10.21;100.00;100667.22;5044999;28;20086;-70
2022/11/15 07:17:42;;;;;;;3.15;2.75;;;;;;;10.22;100.00;100663.38;5046065;28;20025;-72
2022/11/15 07:20:08;;;;;;;3.20;2.90;;;;;;;10.22;100.00;100669.72;5038560;28;20038;-72
2022/11/15 07:22:33;;;;;;;3.00;2.70;;;;;;;10.22;100.00;100672.47;5039964;28;20156;-71
2022/11/15 07:24:58;;;;;;;3.20;2.90;;;;;;;10.22;100.00;100674.38;5045838;28;20032;-73
2022/11/15 07:27:23;;;;;;;3.40;3.10;;;;;;;10.23;100.00;100687.00;5045643;28;20090;-73
2022/11/15 07:29:49;;;;;;;3.47;3.17;;;;;;;10.24;100.00;100683.22;5046924;28;20052;-73
2022/11/15 07:32:14;;;;;;;3.95;3.00;;;;;;;10.24;100.00;100677.75;5046446;28;20113;-72
2022/11/15 07:34:39;;;;;;;3.47;3.17;;;;;;;10.24;100.00;100666.75;5047506;28;20155;-70
2022/11/15 07:37:05;;;;;;;3.90;3.50;;;;;;;10.26;100.00;100676.44;5028309;28;20472;-72
2022/11/15 07:39:30;;;;;;;4.07;3.63;;;;;;;10.26;100.00;100670.97;5026630;28;20045;-70
2022/11/15 07:42:52;;;;;;;4.07;3.50;;;;;;;10.28;100.00;100673.47;5027447;28;20038;-73
2022/11/15 07:44:40;;;;;;;4.57;3.85;;;;;;;10.30;100.00;100671.34;5027077;28;20041;-71
2022/11/15 07:47:06;;;;;;;4.30;3.90;;;;;;;10.30;100.00;100669.44;5039958;28;20066;-71
2022/11/15 07:49:31;;;;;;;4.22;3.83;;;;;;;10.30;100.00;100666.69;5043658;28;20028;-68
2022/11/15 07:51:56;;;;;;;4.55;4.15;;;;;;;10.32;100.00;100660.94;5045538;28;20594;-72
2022/11/15 07:54:22;;;;;;;5.03;4.03;;;;;;;10.32;100.00;100658.22;5042156;28;20060;-73
2022/11/15 07:56:47;;;;;;;4.93;4.35;;;;;;;10.32;100.00;100664.53;5045766;28;20025;-73
2022/11/15 07:59:12;;;;;;;5.10;4.55;;;;;;;10.34;100.00;100665.16;5045136;28;20360;-71
2022/11/15 08:01:38;;;;;;;5.78;4.35;;;;;;;10.36;100.00;100657.50;5043611;28;20024;-72
2022/11/15 08:04:03;;;;;;;4.88;4.40;;;;;;;10.37;100.00;100659.19;5045684;28;20398;-72
2022/11/15 08:06:28;;;;;;;5.40;4.50;;;;;;;10.43;100.00;100664.81;5029840;28;20051;-71
2022/11/15 08:08:54;;;;;;;5.20;4.70;;;;;;;10.49;100.00;100669.34;5025910;28;20060;-73
2022/11/15 08:11:19;;;;;;;6.15;4.97;;;;;;;10.52;100.00;100682.63;5026853;28;20036;-73
2022/11/15 08:13:44;;;;;;;5.35;4.72;;;;;;;10.55;100.00;100677.50;5027135;28;20045;-70
2022/11/15 08:16:11;;;;;;;7.00;5.18;;;;;;;10.58;100.00;100681.69;5024299;28;20122;-70
2022/11/15 08:18:37;;;;;;;5.63;5.03;;;;;;;10.57;100.00;100682.75;5029672;28;20029;-70
2022/11/15 08:21:03;;;;;;;5.85;5.28;;;;;;;10.54;100.00;100684.06;5035106;28;20098;-73
2022/11/15 08:23:29;;;;;;;6.93;5.70;;;;;;;10.55;100.00;100685.75;5045853;28;20040;-67
2022/11/15 08:26:04;;;;;;;6.80;5.85;;;;;;;10.63;100.00;100687.31;5038394;28;20029;-66
2022/11/15 08:28:30;;;;;;;6.70;5.68;;;;;;;10.72;100.00;100683.16;5041696;28;20032;-67
2022/11/15 08:30:56;;;;;;;6.78;6.10;;;;;;;10.82;100.00;100680.66;5043185;28;20120;-67
2022/11/15 08:33:21;;;;;;;6.50;5.38;;;;;;;10.95;100.00;100670.50;5041685;28;20033;-67
2022/11/15 08:35:46;;;;;;;5.40;4.85;;;;;;;11.02;100.00;100668.50;5043132;28;20554;-66
2022/11/15 08:38:12;;;;;;;6.97;5.32;;;;;;;11.06;100.00;100669.72;5045949;28;20040;-65
2022/11/15 08:40:38;;;;;;;6.47;5.35;;;;;;;11.09;100.00;100664.53;5047020;28;20103;-66
2022/11/15 08:43:03;;;;;;;5.97;5.18;;;;;;;11.07;100.00;100665.88;5043251;28;20052;-65
2022/11/15 08:45:35;;;;;;;7.47;5.38;;;;;;;11.05;100.00;100668.00;5041197;28;20104;-66
2022/11/15 08:48:02;;;;;;;5.60;4.78;;;;;;;10.96;100.00;100658.47;5043631;28;20037;-65
2022/11/15 08:50:27;;;;;;;5.38;4.30;;;;;;;11.00;100.00;100656.88;5041116;28;20380;-66
2022/11/15 08:52:52;;;;;;;5.30;4.60;;;;;;;11.06;100.00;100648.56;5046628;28;20031;-66
2022/11/15 08:55:17;;;;;;;5.57;4.75;;;;;;;11.52;100.00;100646.84;5029932;28;20063;-65
2022/11/15 08:57:43;;;;;;;6.82;4.47;;;;;;;12.05;100.00;100644.91;5026937;28;20060;-65
2022/11/15 09:00:09;;;;;;;5.25;3.95;;;;;;;12.34;100.00;100643.81;5027070;28;20465;-65
2022/11/15 09:02:37;;;;;;;5.47;4.15;;;;;;;12.40;100.00;100647.50;5030981;28;20033;-65
2022/11/15 09:05:02;;;;;;;5.57;4.07;;;;;;;12.75;97.38;100644.53;5045708;28;20033;-66
2022/11/15 09:07:29;;;;;;;5.65;4.10;;;;;;;12.36;98.00;100647.16;5048157;28;20036;-66
2022/11/15 09:09:54;;;;;;;5.47;4.00;;;;;;;12.01;100.00;100635.47;5048236;28;20049;-66
2022/11/15 09:12:20;;;;;;;4.35;3.80;;;;;;;11.77;100.00;100645.72;5050281;28;20035;-68
2022/11/15 09:14:45;;;;;;;5.07;3.95;;;;;;;11.86;100.00;100636.00;5047588;28;20410;-70
2022/11/15 09:17:10;;;;;;;5.85;3.88;;;;;;;12.11;100.00;100625.50;5049520;28;20033;-67
2022/11/15 09:19:36;;;;;;;5.18;3.80;;;;;;;12.40;98.73;100618.03;5048606;28;20037;-67
2022/11/15 09:22:05;;;;;;;4.80;3.53;;;;;;;12.72;95.95;100617.47;5047761;28;20526;-67
2022/11/15 09:24:31;;;;;;;3.88;3.10;;;;;;;12.56;94.58;100626.56;5049332;28;20423;-67
2022/11/15 09:26:56;;;;;;;3.85;2.80;;;;;;;12.01;96.30;100619.78;5050169;28;20040;-67
2022/11/15 09:29:21;;;;;;;4.47;2.80;;;;;;;11.68;98.05;100617.75;5048408;28;20052;-68
2022/11/15 09:31:46;;;;;;;4.25;3.20;;;;;;;11.52;100.00;100613.84;5033864;28;20022;-68
2022/11/15 09:34:12;;;;;;;4.93;3.30;;;;;;;11.47;100.00;100615.66;5049376;28;20033;-67
2022/11/15 09:36:37;;;;;;;4.20;3.03;;;;;;;11.36;100.00;100615.44;5044847;28;20712;-67
2022/11/15 09:39:02;;;;;;;4.55;3.00;;;;;;;11.26;100.00;100617.13;5049426;28;20029;-68
2022/11/15 09:41:48;;;;;;;4.10;3.08;;;;;;;11.22;100.00;100615.91;5045988;28;20037;-68
2022/11/15 09:44:25;;;;;;;3.63;2.40;;;;;;;11.52;100.00;100616.59;5048694;28;20032;-68
2022/11/15 09:47:28;;;;;;;3.73;2.67;;;;;;;12.04;96.97;100611.06;5048736;28;20033;-67
2022/11/15 09:49:58;;;;;;;4.43;2.92;;;;;;;12.50;95.46;100614.63;5045442;28;20383;-67
2022/11/15 09:52:24;;;;;;;5.65;2.63;;;;;;;12.39;93.51;100607.28;5045664;28;20070;-67
2022/11/15 09:54:51;;;;;;;4.03;2.75;;;;;;;12.33;93.43;100606.38;5029754;28;20483;-68
2022/11/15 09:57:58;;;;;;;3.70;2.50;;;;;;;12.34;94.04;100608.03;5029754;28;20025;-67
2022/11/15 10:00:38;;;;;;;3.38;2.50;;;;;;;12.33;95.17;100606.38;5029035;28;20044;-67
2022/11/15 10:03:16;;;;;;;3.67;2.17;;;;;;;13.64;87.76;100603.13;5028544;28;20029;-67
2022/11/15 10:05:46;;;;;;;3.42;1.80;;;;;;;14.33;82.27;100591.44;5034342;28;20108;-67
2022/11/15 10:08:43;;;;;;;2.15;1.52;;;;;;;14.67;77.37;100585.69;5048598;28;20025;-67
2022/11/15 10:11:20;;;;;;;3.15;1.50;;;;;;;15.32;72.17;100590.00;5040073;28;20060;-67
2022/11/15 10:13:49;;;;;;;3.77;1.70;;;;;;;15.38;72.60;100588.09;5045470;28;20041;-67
2022/11/15 10:16:32;;;;;;;1.98;1.45;;;;;;;15.90;71.12;100573.38;5047518;28;20044;-67
2022/11/15 10:19:26;;;;;;;3.47;1.23;;;;;;;16.53;68.18;100588.72;5047598;28;20108;-68
2022/11/15 10:22:22;;;;;;;3.10;1.40;;;;;;;17.08;64.65;100573.19;5031994;28;20037;-68
2022/11/15 10:24:48;;;;;;;2.72;1.17;;;;;;;17.25;59.25;100575.63;5028938;28;20038;-68
2022/11/15 10:27:15;;;;;;;2.97;1.00;;;;;;;16.86;59.05;100575.44;5028479;28;20029;-67
2022/11/15 10:29:47;;;;;;;2.45;1.17;;;;;;;16.18;61.53;100586.75;5036968;28;20059;-66
2022/11/15 10:32:14;;;;;;;3.75;1.02;;;;;;;15.76;61.60;100578.59;5046882;28;20057;-66
2022/11/15 10:34:40;;;;;;;2.50;1.00;;;;;;;14.94;63.49;100572.63;5047710;28;20013;-66
2022/11/15 10:37:05;;;;;;;2.83;1.10;;;;;;;13.91;66.14;100560.94;5047809;28;20044;-66
2022/11/15 10:39:32;;;;;;;3.03;1.10;;;;;;;13.76;68.57;100556.06;5046587;28;20100;-71
2022/11/15 10:41:57;;;;;;;1.67;1.02;;;;;;;14.05;68.34;100548.38;5048587;28;20017;-66
2022/11/15 10:44:31;;;;;;;3.20;0.90;;;;;;;14.55;65.45;100541.66;5032073;28;20083;-66
2022/11/15 10:46:56;;;;;;;2.22;1.00;;;;;;;15.00;63.78;100548.59;5033062;28;20083;-66
2022/11/15 10:49:30;;;;;;;3.05;0.95;;;;;;;15.35;63.45;100545.19;5033907;28;20026;-66
2022/11/15 10:52:16;;;;;;;2.10;0.93;;;;;;;15.82;61.21;100547.91;5041155;28;20036;-66
2022/11/15 10:54:44;;;;;;;3.22;1.10;;;;;;;16.69;57.19;100542.41;5044440;28;20056;-70
2022/11/15 10:57:16;;;;;;;1.85;0.88;;;;;;;16.95;56.20;100534.91;5043122;28;20029;-69
2022/11/15 10:59:48;;;;;;;1.38;0.80;;;;;;;17.06;54.07;100535.72;5047732;28;20020;-72
2022/11/15 11:02:56;;;;;;;2.15;0.90;;;;;;;17.55;56.17;100527.50;5048184;28;20029;-79
2022/11/15 11:05:37;;;;;;;1.98;0.90;;;;;;;18.31;53.59;100525.38;5038512;28;20486;-67
2022/11/15 11:08:23;;;;;;;3.70;0.80;;;;;;;18.76;51.47;100517.78;5046499;28;20080;-72
2022/11/15 11:10:56;;;;;;;4.05;1.20;;;;;;;18.74;50.25;100517.22;5046597;28;20044;-68
2022/11/15 11:13:27;;;;;;;2.45;0.90;;;;;;;18.29;49.70;100522.03;5047637;28;20373;-70
2022/11/15 11:16:02;;;;;;;2.22;0.90;;;;;;;17.92;50.86;100523.44;5047410;28;20029;-68
2022/11/15 11:18:38;;;;;;;2.67;0.80;;;;;;;18.31;51.42;100512.31;5028426;28;20486;-70
2022/11/15 11:21:11;;;;;;;2.67;0.90;;;;;;;18.63;50.34;100503.41;5045627;28;20504;-69
2022/11/15 11:23:53;;;;;;;3.00;0.88;;;;;;;18.91;50.29;100493.41;5034485;28;20037;-69
2022/11/15 11:26:59;;;;;;;2.38;0.90;;;;;;;17.69;53.56;100499.06;5028466;28;20074;-69
2022/11/15 11:29:50;;;;;;;2.40;0.90;;;;;;;16.52;57.35;100490.00;5036085;28;20044;-66
2022/11/15 11:32:34;;;;;;;3.28;1.00;;;;;;;15.67;58.94;100498.00;5037320;28;20029;-70
2022/11/15 11:35:15;;;;;;;2.42;1.00;;;;;;;15.14;60.57;100485.34;5046649;28;20031;-69
2022/11/15 11:38:13;;;;;;;2.10;0.70;;;;;;;14.66;61.52;100482.59;5046540;28;20479;-67
2022/11/15 11:40:55;;;;;;;2.30;1.05;;;;;;;14.42;62.52;100465.53;5027690;28;20041;-67
2022/11/15 11:43:39;;;;;;;2.80;1.00;;;;;;;14.49;62.76;100463.41;5027009;28;20045;-67
2022/11/15 11:46:32;;;;;;;2.63;0.90;;;;;;;14.82;61.58;100447.56;5026751;28;20621;-69
2022/11/15 11:49:10;;;;;;;4.45;0.90;;;;;;;15.37;60.45;100453.63;5030328;28;20033;-67